createdAt,value
2022-12-06T00:04:30.356Z,14.93
2022-12-06T00:09:33.254Z,14.97
2022-12-06T00:14:37.479Z,14.96
2022-12-06T00:19:39.263Z,14.75
2022-12-06T00:24:41.245Z,14.76
2022-12-06T00:29:43.123Z,14.84
2022-12-06T00:34:44.907Z,14.87
2022-12-06T00:39:46.642Z,14.90
2022-12-06T00:44:48.457Z,14.86
2022-12-06T00:49:50.235Z,14.79
2022-12-06T00:54:51.934Z,14.71
2022-12-06T00:59:53.789Z,14.36
2022-12-06T01:04:55.496Z,13.98
2022-12-06T01:09:57.549Z,13.78
2022-12-06T01:14:59.586Z,13.81
2022-12-06T01:20:01.549Z,13.74
2022-12-06T01:25:03.720Z,13.71
2022-12-06T01:30:06.807Z,13.67
2022-12-06T01:35:08.994Z,13.62
2022-12-06T01:40:11.480Z,13.67
2022-12-06T01:45:13.341Z,13.61
2022-12-06T01:50:22.166Z,13.52
2022-12-06T01:55:28.380Z,13.45
2022-12-06T02:00:30.264Z,13.44
2022-12-06T02:05:37.513Z,13.42
2022-12-06T02:10:42.472Z,13.39
2022-12-06T02:16:10.727Z,13.35
2022-12-06T02:21:18.280Z,13.33
2022-12-06T02:26:33.597Z,13.40
2022-12-06T02:31:50.565Z,13.51
2022-12-06T02:37:29.719Z,13.46
2022-12-06T02:42:42.515Z,13.40
2022-12-06T02:47:47.347Z,13.44
2022-12-06T02:52:53.443Z,13.51
2022-12-06T02:57:57.379Z,13.67
2022-12-06T03:03:08.215Z,13.79
2022-12-06T03:08:19.776Z,13.80
2022-12-06T03:13:43.441Z,13.96
2022-12-06T03:18:53.262Z,13.92
2022-12-06T03:23:55.810Z,13.76
2022-12-06T03:29:00.465Z,13.73
2022-12-06T03:34:10.258Z,13.88
2022-12-06T03:39:16.192Z,14.09
2022-12-06T03:44:18.076Z,14.28
2022-12-06T03:49:36.379Z,14.44
2022-12-06T03:54:42.424Z,14.57
2022-12-06T03:59:44.163Z,14.55
2022-12-06T04:04:46.100Z,14.50
2022-12-06T04:10:03.584Z,14.48
2022-12-06T04:15:06.745Z,14.58
2022-12-06T04:20:08.667Z,14.67
2022-12-06T04:25:10.440Z,14.77
2022-12-06T04:30:31.347Z,14.77
2022-12-06T04:35:51.894Z,14.64
2022-12-06T04:40:53.604Z,14.63
2022-12-06T04:45:55.638Z,14.62
2022-12-06T04:50:57.411Z,14.67
2022-12-06T04:55:59.497Z,14.68
2022-12-06T05:01:01.372Z,14.71
2022-12-06T05:06:03.488Z,14.77
2022-12-06T05:11:05.684Z,14.70
2022-12-06T05:16:08.128Z,14.65
2022-12-06T05:21:15.679Z,14.55
2022-12-06T05:26:19.681Z,14.56
2022-12-06T05:31:22.566Z,14.58
2022-12-06T05:36:27.637Z,14.67
2022-12-06T05:41:29.361Z,14.63
2022-12-06T05:46:31.032Z,14.47
2022-12-06T05:51:32.720Z,14.53
2022-12-06T05:56:34.472Z,14.44
2022-12-06T06:01:36.216Z,14.32
2022-12-06T06:06:37.885Z,14.40
2022-12-06T06:11:39.603Z,14.53
2022-12-06T06:16:41.519Z,14.54
2022-12-06T06:21:43.393Z,14.58
2022-12-06T06:26:45.083Z,14.63
2022-12-06T06:31:46.749Z,14.62
2022-12-06T06:36:48.773Z,14.50
2022-12-06T06:41:50.536Z,14.27
2022-12-06T06:46:52.334Z,14.45
2022-12-06T06:51:54.036Z,14.47
2022-12-06T06:56:56.274Z,14.23
2022-12-06T07:01:58.122Z,14.19
2022-12-06T07:07:00.328Z,14.19
2022-12-06T07:12:02.355Z,14.21
2022-12-06T07:17:04.786Z,14.17
2022-12-06T07:22:06.804Z,14.14
2022-12-06T07:27:08.683Z,14.21
2022-12-06T07:32:10.987Z,14.35
2022-12-06T07:37:12.750Z,14.47
2022-12-06T07:42:33.204Z,14.52
2022-12-06T07:47:37.906Z,14.55
2022-12-06T07:52:39.697Z,14.56
2022-12-06T07:57:43.627Z,14.73
2022-12-06T08:02:46.073Z,14.76
2022-12-06T08:07:47.835Z,14.90
2022-12-06T08:12:49.509Z,15.06
2022-12-06T08:17:51.163Z,15.23
2022-12-06T08:22:52.762Z,15.35
2022-12-06T08:27:54.391Z,15.48
2022-12-06T08:32:56.126Z,15.55
2022-12-06T08:37:57.778Z,15.56
2022-12-06T08:42:59.438Z,15.57
2022-12-06T08:48:01.735Z,15.47
2022-12-06T08:53:03.520Z,15.42
2022-12-06T08:58:05.255Z,15.44
2022-12-06T09:03:06.923Z,15.39
2022-12-06T09:08:08.664Z,15.41
2022-12-06T09:13:10.445Z,15.44
2022-12-06T09:18:12.119Z,15.47
2022-12-06T09:23:13.779Z,15.51
2022-12-06T09:28:15.974Z,15.52
2022-12-06T09:33:17.719Z,15.54
2022-12-06T09:38:27.088Z,15.52
2022-12-06T09:44:15.515Z,15.60
2022-12-06T09:49:42.837Z,15.64
2022-12-06T09:54:55.885Z,15.63
2022-12-06T10:00:23.109Z,15.63
2022-12-06T10:05:25.116Z,15.63
2022-12-06T10:10:45.539Z,15.69
2022-12-06T10:16:00.882Z,15.67
2022-12-06T10:21:23.133Z,15.66
2022-12-06T10:26:34.150Z,15.57
2022-12-06T10:32:06.622Z,15.49
2022-12-06T10:37:49.788Z,15.39
2022-12-06T10:42:57.704Z,15.34
2022-12-06T10:48:02.795Z,15.36
2022-12-06T10:53:11.566Z,15.36
2022-12-06T10:58:28.035Z,15.27
2022-12-06T11:03:38.077Z,15.12
2022-12-06T11:08:45.205Z,15.03
2022-12-06T11:13:56.539Z,14.95
2022-12-06T11:19:14.223Z,14.80
2022-12-06T11:24:20.040Z,14.76
2022-12-06T11:29:22.505Z,14.66
2022-12-06T11:34:33.129Z,14.57
2022-12-06T11:39:34.914Z,14.59
2022-12-06T11:44:50.056Z,14.62
2022-12-06T11:49:55.573Z,14.71
2022-12-06T11:55:06.500Z,14.79
2022-12-06T12:00:17.993Z,14.92
2022-12-06T12:05:30.475Z,14.98
2022-12-06T12:10:42.638Z,14.91
2022-12-06T12:15:51.805Z,14.75
2022-12-06T12:20:56.082Z,14.54
2022-12-06T12:26:16.736Z,14.56
2022-12-06T12:31:25.440Z,14.81
2022-12-06T12:36:29.264Z,14.71
2022-12-06T12:41:38.630Z,14.55
2022-12-06T12:46:44.940Z,14.16
2022-12-06T12:51:48.215Z,14.17
2022-12-06T12:56:50.758Z,14.17
2022-12-06T13:02:05.577Z,14.17
2022-12-06T13:07:10.388Z,14.17
2022-12-06T13:12:35.808Z,14.09
2022-12-06T13:17:41.890Z,14.06
2022-12-06T13:22:45.534Z,14.03
2022-12-06T13:27:51.209Z,13.86
2022-12-06T13:33:16.456Z,13.76
2022-12-06T13:38:29.022Z,13.71
2022-12-06T13:43:39.278Z,13.71
2022-12-06T13:49:01.222Z,13.62
2022-12-06T13:54:06.041Z,13.51
2022-12-06T13:59:15.620Z,13.43
2022-12-06T14:09:38.436Z,13.35
2022-12-06T14:14:40.141Z,13.31
2022-12-06T14:19:45.619Z,13.14
2022-12-06T14:25:01.467Z,12.97
2022-12-06T14:30:19.766Z,12.88
2022-12-06T14:35:37.191Z,12.87
2022-12-06T14:41:00.906Z,12.84
2022-12-06T14:46:06.294Z,12.79
2022-12-06T14:51:25.613Z,12.66
2022-12-06T14:56:34.732Z,12.59
2022-12-06T15:01:47.689Z,12.57
2022-12-06T15:06:56.366Z,12.49
2022-12-06T15:12:54.173Z,12.42
2022-12-06T15:18:04.161Z,12.38
2022-12-06T15:23:40.891Z,12.32
2022-12-06T15:28:42.949Z,12.27
2022-12-06T15:33:45.572Z,12.28
2022-12-06T15:38:48.130Z,12.27
2022-12-06T15:43:50.726Z,12.29
2022-12-06T15:48:53.909Z,12.26
2022-12-06T15:53:57.501Z,12.24
2022-12-06T15:58:59.198Z,12.24
2022-12-06T16:04:01.600Z,12.12
2022-12-06T16:09:03.502Z,12.09
2022-12-06T16:14:05.738Z,12.07
2022-12-06T16:19:07.407Z,12.07
2022-12-06T16:24:14.470Z,12.09
2022-12-06T16:29:20.655Z,11.95
2022-12-06T16:34:22.742Z,12.03
2022-12-06T16:39:25.145Z,12.00
2022-12-06T16:44:26.845Z,11.97
2022-12-06T16:49:45.834Z,11.95
2022-12-06T16:54:48.264Z,11.86
2022-12-06T16:59:49.962Z,11.80
2022-12-06T17:04:51.634Z,11.82
2022-12-06T17:09:53.570Z,11.81
2022-12-06T17:14:55.262Z,11.74
2022-12-06T17:19:56.820Z,11.66
2022-12-06T17:24:59.965Z,11.52
2022-12-06T17:30:01.888Z,11.32
2022-12-06T17:35:04.155Z,11.31
2022-12-06T17:40:07.239Z,11.23
2022-12-06T17:45:09.148Z,11.08
2022-12-06T17:50:10.954Z,10.97
2022-12-06T17:55:13.371Z,10.85
2022-12-06T18:00:15.588Z,10.77
2022-12-06T18:05:17.469Z,10.68
2022-12-06T18:10:19.153Z,10.57
2022-12-06T18:15:39.156Z,10.55
2022-12-06T18:20:43.087Z,10.48
2022-12-06T18:25:44.709Z,10.44
2022-12-06T18:30:46.577Z,10.40
2022-12-06T18:35:51.563Z,10.43
2022-12-06T18:41:00.657Z,10.47
2022-12-06T18:46:08.027Z,10.49
2022-12-06T18:51:12.484Z,10.48
2022-12-06T18:56:16.946Z,10.52
2022-12-06T19:01:21.845Z,10.51
2022-12-06T19:06:26.663Z,10.50
2022-12-06T19:11:28.767Z,10.51
2022-12-06T19:16:48.621Z,10.47
2022-12-06T19:21:52.320Z,10.46
2022-12-06T19:27:00.846Z,10.48
2022-12-06T19:32:02.451Z,10.45
2022-12-06T19:37:04.017Z,10.45
2022-12-06T19:42:24.299Z,10.49
2022-12-06T19:47:27.404Z,10.57
2022-12-06T19:52:30.986Z,10.55
2022-12-06T19:57:32.997Z,10.56
2022-12-06T20:02:34.764Z,10.59
2022-12-06T20:07:36.954Z,10.58
2022-12-06T20:12:38.672Z,10.60
2022-12-06T20:17:40.827Z,10.58
2022-12-06T20:22:42.796Z,10.66
2022-12-06T20:27:53.300Z,10.75
2022-12-06T20:32:54.927Z,10.87
2022-12-06T20:37:56.715Z,10.91
2022-12-06T20:42:58.210Z,11.00
2022-12-06T20:48:00.376Z,11.08
2022-12-06T20:53:02.495Z,11.11
2022-12-06T20:58:04.094Z,11.01
2022-12-06T21:03:05.671Z,10.93
2022-12-06T21:08:07.546Z,10.94
2022-12-06T21:13:11.499Z,10.92
2022-12-06T21:18:18.777Z,10.90
2022-12-06T21:23:21.436Z,10.90
2022-12-06T21:28:23.039Z,10.94
2022-12-06T21:33:25.472Z,11.00
2022-12-06T21:38:30.008Z,11.03
2022-12-06T21:43:31.775Z,11.05
2022-12-06T21:48:33.459Z,11.07
2022-12-06T21:53:35.939Z,11.09
2022-12-06T21:58:37.555Z,11.12
2022-12-06T22:03:42.053Z,11.18
2022-12-06T22:08:45.909Z,11.28
2022-12-06T22:13:52.820Z,11.31
2022-12-06T22:18:55.258Z,11.33
2022-12-06T22:24:00.153Z,11.30
2022-12-06T22:29:01.820Z,11.25
2022-12-06T22:34:03.861Z,11.21
2022-12-06T22:39:06.491Z,11.24
2022-12-06T22:44:08.305Z,11.25
2022-12-06T22:49:16.418Z,11.25
2022-12-06T22:54:19.554Z,11.26
2022-12-06T22:59:22.092Z,11.36
2022-12-06T23:04:23.719Z,11.40
2022-12-06T23:09:25.307Z,11.33
2022-12-06T23:14:27.032Z,11.31
2022-12-06T23:19:28.607Z,11.36
2022-12-06T23:24:30.345Z,11.39
2022-12-06T23:29:31.918Z,11.45
2022-12-06T23:36:24.396Z,10.50
2022-12-06T23:41:28.840Z,11.54
2022-12-06T23:46:32.577Z,11.61
2022-12-06T23:51:38.316Z,11.66
2022-12-06T23:56:42.029Z,11.66
